Koninklijk Nederlands Meteorologisch Instituut; Ministerie van Verkeer en Waterstaat

 
Weer
Nederlandse vliegveldverwachtingen (TAF)
ZCZC
FC301700 EHWO     WOENSDRECHT/WOENSDRECHT   NLD   19 m.
TAF EHWO 301700Z NIL=

ZCZC
FC301700 EHVK     VOLKEL/VOLKEL   NLD   21 m.
TAF EHVK 301700Z NIL=

ZCZC
FC301700 EHGR     GILZE-RIJEN/GILZE-RIJEN   NLD   14 m.
TAF EHGR 301700Z NIL=

ZCZC
FC301700 EHLW RRA LEEUWARDEN/LEEUWARDEN   NLD   1 m.
TAF EHLW 301757Z 3018/3106 18010KT 3000 BKN004
    PROB30 TEMPO 3018/3020 1500 -RADZ SCT003 BKN004
    BECMG 3020/3022 NSC
    PROB30 3022/3106 0500 FG=

ZCZC
FT301700 EHAM     AMSTERDAM/SCHIPHOL   NLD   -3 m.
TAF EHAM 301702Z 3018/3124 17008KT 4500 BR NSC
    TEMPO 3018/3024 8000 NSW
    PROB30 TEMPO 3100/3107 2500
    BECMG 3107/3110 CAVOK=

ZCZC
FT301700 EHGG     GRONINGEN/EELDE   NLD   5 m.
TAF EHGG 301659Z 3018/3124 16006KT 2500 BR BKN004
    BECMG 3019/3021 NSC
    PROB30 3020/3108 0800 BCFG BKN002
    BECMG 3109/3112 6000 NSW
    PROB30 3111/3116 9000=

ZCZC
FT301700 EHRD     ROTTERDAM/THE HAGUE AIRPORT   NLD   -5 m.
TAF EHRD 301702Z 3018/3124 16008KT 7000 NSC
    TEMPO 3018/3024 CAVOK
    PROB30 3100/3107 4500 BR
    BECMG 3107/3110 CAVOK=

ZCZC
FT301700 EHBK     MAASTRICHT/MAASTRICHT-AACHEN   NLD   114 m.
TAF EHBK 301659Z 3018/3124 19007KT CAVOK
    PROB30 3020/3106 6000=

ZCZC
FT301700 EHEH RRA EINDHOVEN/EINDHOVEN   NLD   22 m.
TAF EHEH 301804Z 3019/0101 17006KT 7000 NSC
    PROB40 3022/3106 4000 BR=

ZCZC
FC301800 EHKD     DE KOOY/DE KOOY   NLD   1 m.
TAF EHKD 301749Z 3018/3106 17006KT 3000 BR NSC
    TEMPO 3018/3106 1500 BR MIFG=